createdAt,value
2022-10-25T00:01:27.677Z,10.67
2022-10-25T00:03:57.048Z,6.97
2022-10-25T00:06:26.730Z,5.03
2022-10-25T00:08:55.330Z,5.67
2022-10-25T00:11:25.514Z,8.87
2022-10-25T00:13:56.594Z,2.67
2022-10-25T00:16:26.932Z,8.57
2022-10-25T00:18:55.491Z,5.77
2022-10-25T00:21:23.989Z,13.13
2022-10-25T00:23:54.459Z,10.80
2022-10-25T00:26:23.116Z,7.87
2022-10-25T00:28:54.943Z,6.93
2022-10-25T00:31:23.660Z,7.33
2022-10-25T00:33:52.395Z,7.90
2022-10-25T00:36:22.815Z,5.60
2022-10-25T00:38:51.851Z,10.33
2022-10-25T00:41:23.946Z,5.37
2022-10-25T00:43:54.176Z,5.30
2022-10-25T00:46:25.827Z,7.03
2022-10-25T00:48:59.322Z,10.90
2022-10-25T00:51:31.500Z,8.03
2022-10-25T00:54:00.283Z,9.30
2022-10-25T00:56:33.169Z,8.80
2022-10-25T00:59:04.631Z,6.37
2022-10-25T01:01:35.557Z,11.33
2022-10-25T01:04:08.870Z,6.57
2022-10-25T01:06:40.075Z,5.83
2022-10-25T01:09:10.288Z,6.23
2022-10-25T01:11:39.772Z,6.63
2022-10-25T01:14:10.609Z,6.97
2022-10-25T01:16:47.540Z,9.97
2022-10-25T01:19:37.443Z,6.20
2022-10-25T01:22:10.251Z,7.90
2022-10-25T01:25:21.760Z,5.33
2022-10-25T01:28:10.643Z,10.60
2022-10-25T01:31:14.164Z,5.97
2022-10-25T01:33:48.892Z,10.43
2022-10-25T01:36:23.662Z,7.47
2022-10-25T01:38:59.349Z,9.57
2022-10-25T01:41:32.752Z,11.10
2022-10-25T01:44:14.066Z,3.80
2022-10-25T01:46:46.866Z,5.63
2022-10-25T01:49:24.806Z,10.83
2022-10-25T01:51:53.022Z,5.73
2022-10-25T01:54:24.950Z,7.40
2022-10-25T01:57:06.763Z,2.73
2022-10-25T01:59:55.202Z,6.83
2022-10-25T02:02:27.292Z,8.83
2022-10-25T02:05:05.117Z,5.30
2022-10-25T02:07:38.991Z,6.87
2022-10-25T02:10:11.847Z,7.77
2022-10-25T02:12:49.737Z,8.13
2022-10-25T02:15:25.762Z,10.17
2022-10-25T02:17:59.195Z,6.53
2022-10-25T02:20:35.391Z,10.00
2022-10-25T02:23:06.757Z,7.60
2022-10-25T02:25:36.786Z,9.17
2022-10-25T02:28:09.928Z,10.50
2022-10-25T02:30:39.689Z,8.03
2022-10-25T02:33:08.325Z,10.20
2022-10-25T02:35:38.248Z,10.57
2022-10-25T02:38:06.460Z,6.63
2022-10-25T02:40:34.851Z,7.97
2022-10-25T02:43:03.428Z,4.10
2022-10-25T02:45:31.563Z,6.50
2022-10-25T02:47:59.801Z,5.87
2022-10-25T02:50:28.082Z,6.83
2022-10-25T02:52:57.614Z,9.83
2022-10-25T02:55:25.747Z,5.47
2022-10-25T02:57:53.988Z,9.10
2022-10-25T03:00:22.257Z,8.03
2022-10-25T03:02:50.536Z,5.07
2022-10-25T03:05:18.741Z,7.00
2022-10-25T03:07:46.829Z,8.47
2022-10-25T03:10:16.622Z,11.60
2022-10-25T03:12:45.267Z,6.57
2022-10-25T03:15:14.233Z,8.53
2022-10-25T03:17:42.425Z,6.10
2022-10-25T03:20:11.246Z,6.33
2022-10-25T03:22:39.322Z,11.87
2022-10-25T03:27:43.563Z,9.47
2022-10-25T03:30:13.465Z,7.67
2022-10-25T03:32:41.715Z,7.73
2022-10-25T03:35:10.491Z,5.13
2022-10-25T03:37:38.719Z,6.40
2022-10-25T03:40:07.876Z,8.77
2022-10-25T03:42:36.318Z,5.10
2022-10-25T03:45:06.912Z,9.30
2022-10-25T03:47:35.177Z,7.73
2022-10-25T03:50:03.742Z,6.53
2022-10-25T03:52:31.891Z,7.10
2022-10-25T03:55:00.252Z,5.70
2022-10-25T04:01:18.403Z,8.57
2022-10-25T04:04:00.640Z,10.10
2022-10-25T04:06:29.062Z,10.23
2022-10-25T04:08:58.584Z,13.33
2022-10-25T04:11:26.891Z,9.63
2022-10-25T04:13:55.033Z,15.67
2022-10-25T04:16:25.575Z,8.63
2022-10-25T04:18:53.897Z,15.43
2022-10-25T04:21:22.807Z,11.67
2022-10-25T04:23:51.735Z,13.70
2022-10-25T04:26:20.535Z,14.00
2022-10-25T04:28:51.808Z,12.63
2022-10-25T04:31:21.649Z,13.53
2022-10-25T04:33:51.876Z,10.30
2022-10-25T04:36:20.634Z,12.70
2022-10-25T04:38:49.568Z,12.77
2022-10-25T04:41:18.464Z,14.50
2022-10-25T04:43:47.143Z,14.07
2022-10-25T04:46:16.041Z,12.37
2022-10-25T04:48:44.328Z,12.20
2022-10-25T04:51:14.391Z,13.73
2022-10-25T04:53:42.697Z,14.47
2022-10-25T04:56:12.968Z,12.70
2022-10-25T04:58:41.437Z,16.97
2022-10-25T05:01:11.536Z,13.53
2022-10-25T05:03:39.796Z,21.03
2022-10-25T05:06:09.584Z,13.10
2022-10-25T05:08:41.109Z,14.27
2022-10-25T05:11:09.772Z,17.03
2022-10-25T05:13:39.516Z,11.00
2022-10-25T05:16:08.882Z,12.97
2022-10-25T05:18:37.213Z,18.93
2022-10-25T05:21:07.441Z,15.17
2022-10-25T05:23:36.194Z,17.23
2022-10-25T05:26:08.366Z,13.20
2022-10-25T05:28:38.342Z,17.27
2022-10-25T05:31:07.734Z,17.63
2022-10-25T05:33:36.466Z,10.53
2022-10-25T05:36:08.080Z,11.57
2022-10-25T05:38:37.891Z,14.53
2022-10-25T05:41:09.026Z,12.93
2022-10-25T05:43:37.542Z,16.83
2022-10-25T05:46:07.537Z,16.80
2022-10-25T05:48:37.421Z,14.20
2022-10-25T05:51:32.533Z,9.30
2022-10-25T05:54:02.873Z,13.17
2022-10-25T05:56:34.256Z,18.87
2022-10-25T05:59:07.624Z,13.47
2022-10-25T06:01:38.120Z,12.20
2022-10-25T06:04:07.017Z,16.03
2022-10-25T06:06:35.320Z,7.53
2022-10-25T06:09:04.299Z,14.07
2022-10-25T06:11:34.613Z,11.57
2022-10-25T06:14:02.998Z,11.30
2022-10-25T06:16:31.618Z,15.50
2022-10-25T06:19:00.540Z,10.33
2022-10-25T06:21:30.714Z,10.63
2022-10-25T06:24:00.660Z,9.00
2022-10-25T06:26:31.859Z,7.53
2022-10-25T06:29:07.513Z,14.23
2022-10-25T06:31:36.251Z,15.00
2022-10-25T06:34:06.823Z,11.90
2022-10-25T06:36:34.960Z,12.77
2022-10-25T06:39:05.623Z,14.23
2022-10-25T06:41:36.920Z,11.63
2022-10-25T06:44:08.052Z,8.37
2022-10-25T06:47:04.504Z,13.03
2022-10-25T06:49:26.968Z,12.07
2022-10-25T06:51:55.250Z,8.87
2022-10-25T06:54:25.469Z,7.33
2022-10-25T06:56:53.873Z,14.77
2022-10-25T06:59:23.713Z,10.17
2022-10-25T07:01:52.587Z,11.20
2022-10-25T07:04:21.105Z,11.93
2022-10-25T07:06:51.507Z,11.13
2022-10-25T07:09:22.638Z,11.23
2022-10-25T07:11:50.942Z,11.73
2022-10-25T07:14:19.091Z,11.00
2022-10-25T07:16:48.836Z,11.00
2022-10-25T07:19:16.987Z,9.80
2022-10-25T07:21:46.187Z,13.50
2022-10-25T07:24:14.580Z,13.90
2022-10-25T07:26:42.947Z,11.00
2022-10-25T07:29:11.363Z,13.90
2022-10-25T07:31:42.125Z,12.73
2022-10-25T07:34:13.799Z,12.40
2022-10-25T07:36:42.237Z,11.37
2022-10-25T07:39:10.468Z,15.40
2022-10-25T07:41:38.839Z,11.50
2022-10-25T07:44:08.743Z,10.63
2022-10-25T07:46:39.172Z,14.70
2022-10-25T07:49:07.298Z,12.27
2022-10-25T07:51:36.815Z,9.40
2022-10-25T07:54:05.623Z,6.73
2022-10-25T07:56:33.813Z,12.47
2022-10-25T07:59:01.972Z,13.10
2022-10-25T08:01:30.618Z,12.03
2022-10-25T08:03:58.752Z,17.87
2022-10-25T08:06:29.517Z,11.37
2022-10-25T08:09:05.457Z,10.07
2022-10-25T08:11:42.978Z,9.90
2022-10-25T08:14:11.654Z,14.43
2022-10-25T08:16:40.036Z,14.07
2022-10-25T08:19:08.390Z,12.13
2022-10-25T08:21:37.145Z,11.60
2022-10-25T08:24:07.640Z,14.37
2022-10-25T08:26:37.984Z,10.40
2022-10-25T08:29:06.558Z,9.03
2022-10-25T08:31:34.764Z,12.10
2022-10-25T08:34:03.124Z,11.57
2022-10-25T08:36:31.547Z,9.37
2022-10-25T08:38:59.685Z,7.60
2022-10-25T08:41:37.910Z,8.00
2022-10-25T08:44:18.397Z,7.63
2022-10-25T08:46:56.373Z,8.80
2022-10-25T08:49:29.363Z,15.47
2022-10-25T08:51:59.570Z,6.40
2022-10-25T08:54:30.807Z,11.03
2022-10-25T08:57:15.392Z,10.23
2022-10-25T08:59:49.457Z,5.37
2022-10-25T09:02:35.044Z,15.07
2022-10-25T09:05:03.419Z,7.37
2022-10-25T09:08:02.199Z,11.87
2022-10-25T09:10:43.346Z,11.70
2022-10-25T09:13:26.423Z,9.60
2022-10-25T09:16:02.314Z,9.13
2022-10-25T09:18:38.626Z,8.17
2022-10-25T09:21:22.167Z,7.03
2022-10-25T09:23:59.889Z,11.23
2022-10-25T09:26:40.650Z,8.10
2022-10-25T09:29:19.007Z,7.47
2022-10-25T09:31:51.979Z,8.17
2022-10-25T09:34:22.873Z,9.57
2022-10-25T09:36:54.825Z,5.83
2022-10-25T09:39:36.612Z,8.47
2022-10-25T09:42:07.602Z,4.90
2022-10-25T09:44:42.904Z,9.57
2022-10-25T09:47:20.273Z,6.80
2022-10-25T09:49:57.570Z,9.67
2022-10-25T09:52:33.065Z,8.27
2022-10-25T09:55:14.996Z,4.90
2022-10-25T09:57:43.987Z,8.93
2022-10-25T10:00:16.916Z,4.20
2022-10-25T10:03:23.851Z,4.83
2022-10-25T10:06:20.607Z,6.27
2022-10-25T10:08:51.928Z,5.90
2022-10-25T10:11:21.452Z,6.93
2022-10-25T10:13:53.616Z,10.03
2022-10-25T10:16:27.261Z,6.47
2022-10-25T10:19:15.221Z,8.20
2022-10-25T10:21:45.201Z,6.10
2022-10-25T10:24:18.957Z,6.80
2022-10-25T10:26:49.201Z,7.73
2022-10-25T10:29:21.574Z,7.63
2022-10-25T10:31:53.345Z,7.00
2022-10-25T10:34:27.526Z,6.63
2022-10-25T10:37:18.148Z,6.50
2022-10-25T10:39:51.017Z,6.37
2022-10-25T10:42:21.005Z,6.50
2022-10-25T10:45:04.839Z,9.53
2022-10-25T10:47:38.272Z,6.03
2022-10-25T10:50:13.975Z,6.23
2022-10-25T10:52:46.314Z,9.03
2022-10-25T10:55:19.635Z,8.93
2022-10-25T10:57:48.087Z,6.50
2022-10-25T11:00:23.950Z,10.50
2022-10-25T11:02:54.407Z,7.80
2022-10-25T11:05:27.375Z,7.40
2022-10-25T11:07:58.268Z,7.43
2022-10-25T11:10:36.150Z,9.10
2022-10-25T11:13:13.174Z,11.00
2022-10-25T11:16:22.000Z,4.57
2022-10-25T11:19:10.130Z,6.33
2022-10-25T11:21:57.793Z,2.37
2022-10-25T11:24:33.040Z,9.83
2022-10-25T11:27:12.387Z,5.20
2022-10-25T11:30:02.767Z,4.17
2022-10-25T11:32:58.323Z,5.70
2022-10-25T11:35:41.285Z,9.70
2022-10-25T11:38:18.137Z,5.37
2022-10-25T11:40:55.215Z,5.77
2022-10-25T11:43:39.328Z,4.43
2022-10-25T11:46:16.179Z,5.57
2022-10-25T11:48:56.858Z,6.73
2022-10-25T11:51:38.878Z,7.90
2022-10-25T11:54:30.017Z,4.97
2022-10-25T11:57:08.025Z,7.27
2022-10-25T11:59:47.493Z,7.10
2022-10-25T12:02:36.002Z,9.20
2022-10-25T12:05:18.263Z,3.77
2022-10-25T12:07:54.273Z,2.83
2022-10-25T12:10:29.977Z,6.77
2022-10-25T12:13:02.227Z,8.47
2022-10-25T12:15:38.348Z,2.67
2022-10-25T12:18:08.771Z,4.50
2022-10-25T12:20:38.824Z,5.90
2022-10-25T12:23:13.627Z,4.77
2022-10-25T12:25:45.273Z,3.70
2022-10-25T12:28:20.931Z,4.17
2022-10-25T12:30:50.302Z,4.13
2022-10-25T12:33:32.217Z,3.87
2022-10-25T12:36:05.595Z,5.70
2022-10-25T12:38:38.091Z,4.30
2022-10-25T12:41:09.957Z,4.60
2022-10-25T12:43:46.372Z,2.90
2022-10-25T12:46:38.344Z,7.17
2022-10-25T12:49:35.004Z,7.83
2022-10-25T12:52:18.503Z,3.13
2022-10-25T12:55:04.331Z,4.53
2022-10-25T12:57:46.096Z,3.87
2022-10-25T13:03:32.796Z,5.30
2022-10-25T13:06:31.149Z,4.77
2022-10-25T13:09:05.673Z,2.73
2022-10-25T13:11:41.909Z,2.20
2022-10-25T13:14:28.506Z,4.00
2022-10-25T13:17:29.917Z,8.87
2022-10-25T13:20:36.829Z,5.43
2022-10-25T13:23:58.685Z,3.50
2022-10-25T13:26:30.711Z,1.63
2022-10-25T13:29:02.360Z,7.43
2022-10-25T13:31:46.745Z,5.67
2022-10-25T13:34:36.733Z,5.30
2022-10-25T13:37:44.896Z,3.70
2022-10-25T13:40:23.581Z,3.27
2022-10-25T13:43:03.561Z,5.43
2022-10-25T13:45:41.533Z,4.53
2022-10-25T13:48:18.047Z,4.10
2022-10-25T13:50:49.315Z,3.80
2022-10-25T13:53:23.341Z,7.73
2022-10-25T13:56:00.624Z,4.50
2022-10-25T13:58:44.961Z,5.73
2022-10-25T14:01:50.208Z,3.23
2022-10-25T14:04:38.807Z,5.33
2022-10-25T14:07:45.328Z,2.63
2022-10-25T14:10:28.213Z,4.67
2022-10-25T14:13:15.668Z,5.53
2022-10-25T14:15:51.203Z,4.37
2022-10-25T14:18:23.457Z,3.03
2022-10-25T14:20:56.492Z,4.33
2022-10-25T14:23:27.918Z,6.37
2022-10-25T14:25:58.446Z,7.30
2022-10-25T14:28:28.740Z,3.13
2022-10-25T14:30:58.714Z,3.37
2022-10-25T14:33:32.459Z,5.73
2022-10-25T14:36:12.003Z,2.33
2022-10-25T14:38:52.897Z,4.03
2022-10-25T14:41:59.141Z,4.40
2022-10-25T14:44:33.865Z,5.20
2022-10-25T14:47:03.290Z,4.07
2022-10-25T14:49:31.684Z,4.87
2022-10-25T14:52:04.114Z,3.90
2022-10-25T14:54:34.906Z,5.00
2022-10-25T14:57:06.386Z,2.93
2022-10-25T14:59:42.922Z,2.53
2022-10-25T15:02:19.076Z,3.23
2022-10-25T15:04:50.163Z,2.10
2022-10-25T15:07:23.534Z,5.73
2022-10-25T15:09:53.155Z,5.80
2022-10-25T15:12:24.830Z,2.73
2022-10-25T15:14:53.600Z,4.17
2022-10-25T15:18:25.754Z,4.83
2022-10-25T15:21:31.402Z,4.90
2022-10-25T15:24:18.193Z,4.50
2022-10-25T15:26:56.726Z,1.60
2022-10-25T15:32:18.744Z,4.07
2022-10-25T15:34:52.274Z,1.37
2022-10-25T15:37:24.237Z,5.17
2022-10-25T15:39:57.504Z,3.70
2022-10-25T15:42:44.724Z,1.60
2022-10-25T15:45:13.945Z,6.90
2022-10-25T15:47:42.968Z,2.23
2022-10-25T15:50:17.439Z,3.63
2022-10-25T15:53:06.180Z,5.63
2022-10-25T15:55:36.006Z,4.33
2022-10-25T15:59:09.887Z,5.10
2022-10-25T16:01:42.094Z,4.87
2022-10-25T16:04:18.752Z,1.60
2022-10-25T16:06:50.722Z,3.07
2022-10-25T16:09:18.931Z,3.80
2022-10-25T16:12:08.023Z,5.53
2022-10-25T16:15:01.536Z,5.60
2022-10-25T16:18:07.221Z,5.77
2022-10-25T16:24:31.694Z,4.97
2022-10-25T16:27:00.879Z,4.73
2022-10-25T16:29:31.504Z,3.27
2022-10-25T16:32:20.599Z,5.63
2022-10-25T16:34:48.753Z,4.73
2022-10-25T16:37:16.823Z,9.67
2022-10-25T16:39:47.000Z,6.87
2022-10-25T16:42:36.913Z,5.47
2022-10-25T16:45:26.315Z,4.90
2022-10-25T16:48:25.783Z,5.30
2022-10-25T16:51:13.693Z,8.07
2022-10-25T16:54:15.219Z,5.33
2022-10-25T16:56:43.883Z,6.33
2022-10-25T16:59:11.973Z,8.73
2022-10-25T17:02:18.871Z,9.23
2022-10-25T17:04:49.543Z,4.73
2022-10-25T17:07:17.971Z,4.57
2022-10-25T17:09:46.423Z,6.23
2022-10-25T17:15:53.447Z,6.80
2022-10-25T17:18:21.566Z,4.87
2022-10-25T17:20:52.741Z,9.37
2022-10-25T17:23:21.224Z,8.10
2022-10-25T17:25:58.372Z,6.20
2022-10-25T17:28:27.060Z,7.17
2022-10-25T17:30:55.172Z,7.13
2022-10-25T17:33:23.694Z,3.10
2022-10-25T17:35:53.731Z,4.47
2022-10-25T17:38:21.852Z,6.27
2022-10-25T17:41:45.120Z,10.37
2022-10-25T17:44:13.448Z,7.37
2022-10-25T17:46:41.531Z,5.83
2022-10-25T17:50:06.082Z,9.47
2022-10-25T17:52:54.444Z,5.83
2022-10-25T17:55:24.896Z,6.63
2022-10-25T17:57:52.968Z,9.23
2022-10-25T18:00:23.487Z,6.07
2022-10-25T18:02:54.883Z,8.97
2022-10-25T18:06:27.870Z,7.03
2022-10-25T18:09:00.545Z,6.17
2022-10-25T18:12:20.903Z,7.97
2022-10-25T18:14:54.619Z,9.70
2022-10-25T18:18:06.051Z,9.17
2022-10-25T18:20:41.655Z,6.10
2022-10-25T18:23:49.254Z,6.20
2022-10-25T18:26:23.489Z,5.67
2022-10-25T18:28:51.741Z,4.97
2022-10-25T18:31:21.212Z,9.40
2022-10-25T18:34:47.974Z,5.63
2022-10-25T18:37:36.981Z,5.23
2022-10-25T18:40:10.471Z,7.53
2022-10-25T18:46:47.046Z,13.10
2022-10-25T18:49:20.873Z,8.00
2022-10-25T18:52:28.097Z,5.67
2022-10-25T18:54:58.525Z,9.90
2022-10-25T18:58:05.503Z,11.50
2022-10-25T19:01:24.438Z,6.67
2022-10-25T19:07:37.215Z,7.67
2022-10-25T19:10:07.602Z,8.60
2022-10-25T19:12:36.779Z,10.20
2022-10-25T19:15:05.288Z,6.30
2022-10-25T19:17:52.757Z,8.07
2022-10-25T19:24:16.086Z,7.50
2022-10-25T19:26:45.762Z,7.53
2022-10-25T19:29:16.866Z,11.00
2022-10-25T19:32:41.101Z,8.33
2022-10-25T19:35:15.136Z,11.90
2022-10-25T19:38:26.069Z,7.13
2022-10-25T19:41:26.402Z,9.87
2022-10-25T19:47:59.102Z,8.03
2022-10-25T19:50:33.073Z,7.13
2022-10-25T19:53:39.657Z,5.77
2022-10-25T19:56:14.716Z,5.97
2022-10-25T19:58:44.705Z,9.77
2022-10-25T20:01:15.644Z,8.60
2022-10-25T20:03:51.350Z,11.67
2022-10-25T20:10:18.888Z,8.70
2022-10-25T20:12:52.791Z,11.47
2022-10-25T20:16:00.426Z,10.53
2022-10-25T20:18:37.104Z,8.60
2022-10-25T20:21:09.148Z,7.33
2022-10-25T20:27:42.836Z,16.53
2022-10-25T20:30:50.153Z,7.70
2022-10-25T20:33:20.539Z,7.17
2022-10-25T20:36:51.599Z,7.50
2022-10-25T20:40:23.694Z,9.67
2022-10-25T20:42:57.751Z,8.40
2022-10-25T20:45:28.028Z,8.70
2022-10-25T20:47:56.613Z,11.67
2022-10-25T20:51:24.039Z,9.67
2022-10-25T20:53:52.262Z,11.83
2022-10-25T20:57:00.009Z,8.83
2022-10-25T20:59:55.996Z,9.40
2022-10-25T21:03:03.737Z,9.00
2022-10-25T21:09:13.379Z,8.30
2022-10-25T21:12:21.118Z,6.33
2022-10-25T21:14:56.179Z,9.40
2022-10-25T21:18:06.002Z,11.77
2022-10-25T21:20:39.845Z,7.40
2022-10-25T21:23:09.191Z,7.97
2022-10-25T21:26:46.857Z,7.10
2022-10-25T21:29:15.805Z,10.67
2022-10-25T21:31:46.323Z,11.97
2022-10-25T21:34:14.778Z,7.97
2022-10-25T21:36:43.052Z,7.27
2022-10-25T21:39:11.266Z,8.03
2022-10-25T21:42:34.509Z,8.07
2022-10-25T21:45:32.222Z,9.23
2022-10-25T21:48:21.505Z,12.97
2022-10-25T21:50:55.339Z,7.20
2022-10-25T21:53:26.601Z,13.50
2022-10-25T21:56:05.160Z,5.50
2022-10-25T21:58:33.893Z,7.33
2022-10-25T22:01:28.739Z,8.53
2022-10-25T22:04:18.372Z,10.10
2022-10-25T22:06:47.816Z,9.03
2022-10-25T22:09:40.048Z,10.63
2022-10-25T22:12:10.398Z,6.13
2022-10-25T22:14:38.514Z,7.03
2022-10-25T22:17:09.473Z,6.43
2022-10-25T22:20:04.118Z,6.27
2022-10-25T22:23:34.898Z,8.10
2022-10-25T22:26:23.253Z,8.43
2022-10-25T22:29:17.703Z,7.93
2022-10-25T22:32:05.051Z,11.57
2022-10-25T22:34:37.188Z,9.30
2022-10-25T22:37:10.936Z,9.83
2022-10-25T22:39:40.389Z,12.73
2022-10-25T22:42:12.183Z,11.23
2022-10-25T22:45:35.780Z,8.10
2022-10-25T22:48:04.088Z,6.97
2022-10-25T22:50:53.133Z,8.07
2022-10-25T22:53:27.506Z,5.37
2022-10-25T22:55:59.430Z,10.83
2022-10-25T23:03:06.347Z,8.23
2022-10-25T23:06:01.331Z,12.83
2022-10-25T23:08:31.923Z,11.27
2022-10-25T23:11:03.057Z,7.67
2022-10-25T23:13:33.827Z,9.73
2022-10-25T23:16:02.726Z,6.77
2022-10-25T23:18:33.366Z,4.60
2022-10-25T23:21:43.068Z,13.07
2022-10-25T23:24:42.869Z,8.07
2022-10-25T23:27:48.878Z,5.10
2022-10-25T23:31:26.734Z,7.10
2022-10-25T23:33:58.737Z,6.40
2022-10-25T23:36:37.486Z,4.53
2022-10-25T23:43:27.913Z,6.87
2022-10-25T23:45:57.045Z,10.40
2022-10-25T23:48:30.005Z,7.33
2022-10-25T23:51:36.429Z,6.77
2022-10-25T23:54:33.361Z,7.10
2022-10-25T23:57:38.758Z,9.23
